Time;durP1;ratioP1;P1;durP2;ratioP2;P2;SDS_P1;SDS_P2;PMS_P1;PMS_P2;Temp;Humidity;BMP_temperature;BMP_pressure;BME280_temperature;BME280_humidity;BME280_pressure;Samples;Min_cycle;Max_cycle;Signal;HPM_P1;HPM_P2
2021/10/29 00:01:45;;;;;;;58.85;3.15;;;4.30;1.00;;;;;;5091373;28;20805;-66
2021/10/29 00:04:12;;;;;;;58.78;2.90;;;4.20;1.00;;;;;;5091866;28;20228;-67
2021/10/29 00:06:40;;;;;;;58.75;2.80;;;4.20;1.00;;;;;;5091065;28;20231;-66
2021/10/29 00:09:07;;;;;;;58.75;3.15;;;4.10;1.00;;;;;;5091246;28;20295;-66
2021/10/29 00:11:34;;;;;;;58.88;3.13;;;4.10;1.00;;;;;;5091143;28;20204;-67
2021/10/29 00:14:01;;;;;;;59.80;3.58;;;4.00;1.00;;;;;;5091122;28;20204;-66
2021/10/29 00:16:28;;;;;;;58.67;2.58;;;4.00;1.00;;;;;;5091306;28;20208;-66
2021/10/29 00:18:55;;;;;;;58.55;3.13;;;4.00;1.00;;;;;;5091229;28;20210;-68
2021/10/29 00:21:21;;;;;;;58.58;2.65;;;4.10;1.00;;;;;;5091019;28;20228;-65
2021/10/29 00:23:50;;;;;;;58.92;2.90;;;4.10;1.00;;;;;;5077506;28;20224;-66
2021/10/29 00:26:17;;;;;;;58.85;3.00;;;4.10;1.00;;;;;;5070940;28;20299;-67
2021/10/29 00:28:44;;;;;;;59.75;3.65;;;4.10;1.00;;;;;;5070963;28;20207;-66
2021/10/29 00:31:11;;;;;;;58.65;2.80;;;4.10;1.00;;;;;;5071064;28;20673;-65
2021/10/29 00:33:37;;;;;;;59.10;3.70;;;4.10;1.00;;;;;;5070701;28;20618;-66
2021/10/29 00:36:05;;;;;;;58.97;3.20;;;4.10;1.00;;;;;;5070682;28;20236;-66
2021/10/29 00:38:32;;;;;;;58.75;2.95;;;4.10;1.00;;;;;;5070658;28;20205;-67
2021/10/29 00:41:00;;;;;;;58.55;3.00;;;4.10;1.00;;;;;;5070891;28;20668;-66
2021/10/29 00:43:27;;;;;;;58.65;2.90;;;4.10;1.00;;;;;;5073282;28;20251;-66
2021/10/29 00:45:54;;;;;;;59.08;3.10;;;4.20;1.00;;;;;;5074937;28;20205;-66
2021/10/29 00:48:21;;;;;;;58.78;3.00;;;4.20;1.00;;;;;;5074772;28;20292;-66
2021/10/29 00:50:48;;;;;;;59.92;3.40;;;4.10;1.00;;;;;;5074479;28;20670;-68
2021/10/29 00:53:15;;;;;;;58.40;3.03;;;4.00;1.00;;;;;;5074760;28;20205;-65
2021/10/29 00:55:43;;;;;;;59.10;3.72;;;3.90;1.00;;;;;;5085339;28;20213;-65
2021/10/29 00:58:11;;;;;;;59.08;3.28;;;3.90;1.00;;;;;;5094613;28;20751;-67
2021/10/29 01:00:38;;;;;;;59.17;3.58;;;3.90;1.00;;;;;;5094634;28;20232;-67
2021/10/29 01:03:05;;;;;;;58.65;2.88;;;3.80;1.00;;;;;;5094659;28;20212;-66
2021/10/29 01:05:31;;;;;;;59.67;3.85;;;3.80;1.00;;;;;;5094644;28;20236;-66
2021/10/29 01:08:00;;;;;;;59.15;3.10;;;3.80;1.00;;;;;;5094444;28;20204;-66
2021/10/29 01:10:29;;;;;;;58.78;3.15;;;3.80;1.00;;;;;;5094475;28;20305;-67
2021/10/29 01:12:57;;;;;;;58.97;3.03;;;3.80;1.00;;;;;;5094428;28;20211;-68
2021/10/29 01:15:25;;;;;;;58.90;3.08;;;3.70;1.00;;;;;;5094294;28;20295;-66
2021/10/29 01:17:52;;;;;;;58.55;3.00;;;3.70;1.00;;;;;;5094395;28;20205;-67
2021/10/29 01:20:21;;;;;;;58.70;3.20;;;3.70;1.00;;;;;;5094289;28;20742;-66
2021/10/29 01:22:48;;;;;;;59.00;3.30;;;3.70;1.00;;;;;;5094135;28;20204;-66
2021/10/29 01:25:15;;;;;;;58.88;3.17;;;3.60;1.00;;;;;;5094211;28;20227;-66
2021/10/29 01:27:43;;;;;;;58.88;3.30;;;3.60;1.00;;;;;;5091854;28;20726;-67
2021/10/29 01:30:12;;;;;;;58.88;3.17;;;3.60;1.00;;;;;;5093853;28;20227;-65
2021/10/29 01:32:40;;;;;;;58.92;3.50;;;3.50;1.00;;;;;;5086164;28;20216;-68
2021/10/29 01:35:08;;;;;;;58.58;2.92;;;3.60;1.00;;;;;;5073476;28;20684;-67
2021/10/29 01:37:38;;;;;;;58.70;3.20;;;3.50;1.00;;;;;;5073623;28;20244;-67
2021/10/29 01:40:07;;;;;;;59.05;3.33;;;3.50;1.00;;;;;;5073459;28;20320;-66
2021/10/29 01:42:34;;;;;;;58.88;3.20;;;3.50;1.00;;;;;;5073507;28;20241;-65
2021/10/29 01:45:01;;;;;;;58.58;3.28;;;3.50;1.00;;;;;;5074185;28;20220;-66
2021/10/29 01:47:28;;;;;;;59.17;4.05;;;3.50;1.00;;;;;;5074051;28;20312;-65
2021/10/29 01:49:55;;;;;;;58.83;3.45;;;3.50;1.00;;;;;;5073398;28;20232;-67
2021/10/29 01:52:22;;;;;;;59.80;3.85;;;3.50;1.00;;;;;;5073542;28;20209;-65
2021/10/29 01:54:51;;;;;;;59.25;4.03;;;3.50;1.00;;;;;;5073049;28;20201;-67
2021/10/29 01:57:18;;;;;;;58.85;3.15;;;3.50;1.00;;;;;;5072927;28;20219;-66
2021/10/29 01:59:45;;;;;;;58.95;3.40;;;3.50;1.00;;;;;;5088325;28;20232;-65
2021/10/29 02:02:12;;;;;;;58.85;3.30;;;3.40;1.00;;;;;;5093156;28;20239;-66
2021/10/29 02:04:38;;;;;;;58.60;3.38;;;3.30;1.00;;;;;;5093586;28;20260;-66
2021/10/29 02:07:06;;;;;;;58.33;3.17;;;3.30;1.00;;;;;;5093539;28;20495;-65
2021/10/29 02:09:33;;;;;;;58.78;3.53;;;3.30;1.00;;;;;;5093239;28;20228;-66
2021/10/29 02:12:01;;;;;;;58.75;3.50;;;3.20;1.00;;;;;;5093251;28;20308;-67
2021/10/29 02:14:28;;;;;;;58.50;2.95;;;3.20;1.00;;;;;;5093162;28;20291;-67
2021/10/29 02:16:55;;;;;;;59.08;3.40;;;3.10;1.00;;;;;;5093082;28;20315;-67
2021/10/29 02:19:22;;;;;;;59.22;3.58;;;3.20;1.00;;;;;;5093023;28;20255;-66
2021/10/29 02:21:49;;;;;;;58.97;3.67;;;3.20;1.00;;;;;;5093247;28;20240;-65
2021/10/29 02:24:16;;;;;;;58.85;3.10;;;3.30;1.00;;;;;;5092800;28;20307;-69
2021/10/29 02:26:43;;;;;;;59.28;3.70;;;3.20;1.00;;;;;;5093146;28;20211;-65
2021/10/29 02:29:11;;;;;;;58.78;3.05;;;3.20;1.00;;;;;;5093140;28;20209;-65
2021/10/29 02:31:40;;;;;;;58.80;3.40;;;3.20;1.00;;;;;;5074809;28;20305;-67
2021/10/29 02:34:07;;;;;;;58.75;3.17;;;3.20;1.00;;;;;;5072467;28;20297;-65
2021/10/29 02:36:34;;;;;;;58.88;3.40;;;3.20;1.00;;;;;;5072211;28;20205;-65
2021/10/29 02:39:01;;;;;;;58.90;3.20;;;3.20;1.00;;;;;;5072598;28;20635;-66
2021/10/29 02:41:28;;;;;;;58.97;3.17;;;3.20;1.00;;;;;;5072460;28;20609;-65
2021/10/29 02:43:54;;;;;;;58.70;3.20;;;3.20;1.00;;;;;;5072585;28;20315;-66
2021/10/29 02:46:23;;;;;;;58.90;3.35;;;3.20;1.00;;;;;;5072610;28;20200;-65
2021/10/29 02:48:51;;;;;;;58.80;3.00;;;3.20;1.00;;;;;;5072672;28;20209;-67
2021/10/29 02:51:18;;;;;;;58.97;3.83;;;3.20;1.00;;;;;;5072019;28;20716;-66
2021/10/29 02:53:45;;;;;;;58.70;3.05;;;3.20;1.00;;;;;;5072579;28;20648;-68
2021/10/29 02:56:12;;;;;;;59.00;3.25;;;3.10;1.00;;;;;;5071730;28;20240;-67
2021/10/29 02:58:38;;;;;;;58.65;3.00;;;3.10;1.00;;;;;;5072513;28;20236;-66
2021/10/29 03:01:06;;;;;;;58.75;2.85;;;3.10;1.00;;;;;;5071828;28;20315;-66
2021/10/29 03:03:35;;;;;;;58.90;3.20;;;3.10;1.00;;;;;;5087374;28;20299;-68
2021/10/29 03:06:01;;;;;;;59.10;3.10;;;3.00;1.00;;;;;;5091785;28;20232;-67
2021/10/29 03:08:28;;;;;;;58.80;3.17;;;2.90;1.00;;;;;;5092880;28;20752;-67
2021/10/29 03:10:55;;;;;;;58.55;3.00;;;2.90;1.00;;;;;;5092470;28;20224;-67
2021/10/29 03:13:23;;;;;;;58.75;3.08;;;2.90;1.00;;;;;;5092119;28;20212;-66
2021/10/29 03:15:50;;;;;;;58.55;3.40;;;2.90;1.00;;;;;;5091564;28;20287;-66
2021/10/29 03:18:18;;;;;;;58.40;3.28;;;2.90;1.00;;;;;;5092177;28;20687;-66
2021/10/29 03:20:47;;;;;;;58.97;3.20;;;2.80;1.00;;;;;;5092083;28;20250;-67
2021/10/29 03:23:16;;;;;;;58.67;3.50;;;2.80;1.00;;;;;;5092122;28;20333;-68
2021/10/29 03:25:44;;;;;;;58.35;2.80;;;2.70;1.00;;;;;;5091647;28;20739;-66
2021/10/29 03:28:11;;;;;;;58.70;3.25;;;2.70;1.00;;;;;;5092370;28;20215;-67
2021/10/29 03:30:38;;;;;;;58.58;3.00;;;2.70;1.00;;;;;;5092304;28;20345;-66
2021/10/29 03:33:05;;;;;;;58.65;3.13;;;2.70;1.00;;;;;;5091870;28;20204;-67
2021/10/29 03:35:32;;;;;;;58.70;2.95;;;2.70;1.00;;;;;;5071080;28;20201;-67
2021/10/29 03:38:17;;;;;;;59.20;4.47;;;2.70;1.00;;;;;;5071911;28;20247;-66
2021/10/29 03:40:52;;;;;;;62.38;3.75;;;2.70;1.00;;;;;;5071324;28;20278;-67
2021/10/29 03:43:24;;;;;;;59.17;4.03;;;2.70;1.00;;;;;;5071393;28;20212;-67
2021/10/29 03:45:53;;;;;;;58.60;3.20;;;2.70;1.00;;;;;;5071016;28;20220;-67
2021/10/29 03:48:26;;;;;;;58.70;3.30;;;2.70;1.00;;;;;;5072011;28;20208;-66
2021/10/29 03:51:02;;;;;;;58.65;3.08;;;2.70;1.00;;;;;;5071479;28;20604;-67
2021/10/29 03:53:36;;;;;;;58.67;3.45;;;2.70;1.00;;;;;;5071469;28;20626;-67
2021/10/29 03:56:04;;;;;;;58.55;3.00;;;2.70;1.00;;;;;;5070700;28;20661;-67
2021/10/29 03:58:32;;;;;;;58.47;2.90;;;2.70;1.00;;;;;;5071580;28;20291;-67
2021/10/29 04:00:58;;;;;;;58.78;3.38;;;2.70;1.00;;;;;;5071265;28;20238;-67
2021/10/29 04:03:25;;;;;;;60.08;3.30;;;2.70;1.00;;;;;;5071365;28;20296;-67
2021/10/29 04:05:52;;;;;;;58.67;2.95;;;2.70;1.00;;;;;;5080182;28;20660;-66
2021/10/29 04:08:19;;;;;;;58.20;3.28;;;2.70;1.00;;;;;;5091762;28;20291;-68
2021/10/29 04:10:50;;;;;;;58.70;3.30;;;2.60;1.00;;;;;;5091439;28;20596;-66
2021/10/29 04:13:17;;;;;;;58.90;3.60;;;2.60;1.00;;;;;;5091358;28;20211;-66
2021/10/29 04:15:44;;;;;;;58.88;3.40;;;2.70;1.00;;;;;;5090731;28;20200;-66
2021/10/29 04:18:11;;;;;;;58.80;3.10;;;2.70;1.00;;;;;;5095044;28;20793;-66
2021/10/29 04:20:39;;;;;;;58.85;3.50;;;2.80;1.00;;;;;;5095595;28;20262;-66
2021/10/29 04:23:06;;;;;;;58.58;2.92;;;2.80;1.00;;;;;;5095713;28;20239;-66
2021/10/29 04:25:33;;;;;;;57.97;3.03;;;2.80;1.00;;;;;;5094900;28;20227;-66
2021/10/29 04:28:07;;;;;;;58.78;3.50;;;2.90;1.00;;;;;;5096142;28;20255;-66
2021/10/29 04:30:34;;;;;;;58.13;3.10;;;3.00;1.00;;;;;;5095425;28;20235;-66
2021/10/29 04:33:06;;;;;;;58.97;3.50;;;3.00;1.00;;;;;;5095249;28;20205;-66
2021/10/29 04:35:34;;;;;;;60.08;3.40;;;3.10;1.00;;;;;;5095086;28;20197;-66
2021/10/29 04:38:01;;;;;;;58.58;2.92;;;3.10;1.00;;;;;;5093342;28;20290;-65
2021/10/29 04:40:29;;;;;;;58.50;3.50;;;3.20;1.00;;;;;;5095177;28;20220;-67
2021/10/29 04:42:55;;;;;;;58.55;2.95;;;3.30;1.00;;;;;;5095020;28;20208;-65
2021/10/29 04:45:24;;;;;;;58.70;3.10;;;3.30;1.00;;;;;;5094627;28;20310;-67
2021/10/29 04:47:51;;;;;;;58.75;3.17;;;3.30;1.00;;;;;;5095145;28;20754;-66
2021/10/29 04:50:17;;;;;;;58.88;3.40;;;3.40;1.00;;;;;;5095290;28;20311;-65
2021/10/29 04:52:45;;;;;;;58.78;2.90;;;3.40;1.00;;;;;;5094894;28;20295;-67
2021/10/29 04:55:12;;;;;;;58.83;3.22;;;3.40;1.00;;;;;;5094498;28;20207;-66
2021/10/29 04:57:38;;;;;;;58.60;3.20;;;3.40;1.00;;;;;;5094411;28;20232;-68
2021/10/29 05:00:07;;;;;;;58.75;3.10;;;3.50;1.00;;;;;;5094823;28;20239;-67
2021/10/29 05:02:35;;;;;;;58.83;3.47;;;3.50;1.00;;;;;;5094411;28;20398;-66
2021/10/29 05:05:04;;;;;;;58.60;3.35;;;3.50;1.00;;;;;;5094548;28;20311;-67
2021/10/29 05:07:31;;;;;;;58.60;3.10;;;3.50;1.00;;;;;;5094663;28;20211;-68
2021/10/29 05:09:58;;;;;;;58.67;3.40;;;3.50;1.00;;;;;;5093702;28;20226;-67
2021/10/29 05:12:26;;;;;;;58.88;3.40;;;3.50;1.00;;;;;;5094986;28;20207;-68
2021/10/29 05:14:53;;;;;;;58.47;3.20;;;3.60;1.00;;;;;;5095252;28;20196;-67
2021/10/29 05:17:20;;;;;;;58.88;3.25;;;3.60;1.00;;;;;;5094538;28;20299;-67
2021/10/29 05:19:48;;;;;;;58.60;2.90;;;3.50;1.00;;;;;;5094969;28;20250;-67
2021/10/29 05:22:15;;;;;;;58.80;3.30;;;3.50;1.00;;;;;;5094950;28;20210;-66
2021/10/29 05:24:42;;;;;;;58.65;2.90;;;3.50;1.00;;;;;;5094664;28;20703;-67
2021/10/29 05:27:09;;;;;;;58.40;2.90;;;3.50;1.00;;;;;;5094442;28;20688;-67
2021/10/29 05:29:35;;;;;;;59.30;3.85;;;3.40;1.00;;;;;;5093772;28;20335;-67
2021/10/29 05:32:03;;;;;;;59.58;3.30;;;3.40;1.00;;;;;;5094511;28;20685;-67
2021/10/29 05:34:30;;;;;;;58.78;2.90;;;3.40;1.00;;;;;;5094739;28;20204;-67
2021/10/29 05:36:58;;;;;;;58.70;2.95;;;3.30;1.00;;;;;;5094300;28;20204;-67
2021/10/29 05:39:25;;;;;;;58.58;3.00;;;3.30;1.00;;;;;;5094454;28;20251;-66
2021/10/29 05:41:52;;;;;;;58.15;3.00;;;3.30;1.00;;;;;;5094464;28;20204;-67
2021/10/29 05:44:20;;;;;;;58.90;3.53;;;3.30;1.00;;;;;;5094275;28;20215;-67
2021/10/29 05:46:47;;;;;;;58.78;3.00;;;3.30;1.00;;;;;;5094091;28;20228;-66
2021/10/29 05:49:15;;;;;;;58.63;3.00;;;3.30;1.00;;;;;;5094074;28;20703;-67
2021/10/29 05:51:45;;;;;;;58.60;3.00;;;3.30;1.00;;;;;;5094373;28;20627;-67
2021/10/29 05:54:34;;;;;;;58.10;2.80;;;3.30;1.00;;;;;;5094184;28;20235;-67
2021/10/29 05:57:02;;;;;;;58.70;3.03;;;3.30;1.00;;;;;;5093777;28;20222;-66
2021/10/29 05:59:32;;;;;;;58.65;3.20;;;3.20;1.00;;;;;;5093819;28;20251;-66
2021/10/29 06:01:59;;;;;;;58.58;3.30;;;3.20;1.00;;;;;;5094127;28;20331;-67
2021/10/29 06:04:26;;;;;;;58.50;2.90;;;3.20;1.00;;;;;;5093999;28;20203;-67
2021/10/29 06:06:55;;;;;;;58.58;3.00;;;3.20;1.00;;;;;;5093547;28;20309;-67
2021/10/29 06:09:23;;;;;;;59.20;3.83;;;3.20;1.00;;;;;;5093651;28;20224;-67
2021/10/29 06:11:50;;;;;;;58.47;3.10;;;3.10;1.00;;;;;;5094027;28;20208;-67
2021/10/29 06:14:17;;;;;;;58.70;3.03;;;3.10;1.00;;;;;;5087839;28;20644;-68
2021/10/29 06:16:44;;;;;;;58.75;3.05;;;3.10;1.00;;;;;;5072964;28;20292;-68
2021/10/29 06:19:11;;;;;;;59.95;4.68;;;3.10;1.00;;;;;;5072120;28;20205;-69
2021/10/29 06:21:42;;;;;;;58.30;2.92;;;3.10;1.00;;;;;;5072599;28;20205;-67
2021/10/29 06:24:11;;;;;;;58.90;3.50;;;3.20;1.00;;;;;;5072347;28;20635;-67
2021/10/29 06:26:41;;;;;;;58.75;3.30;;;3.20;1.00;;;;;;5072178;28;20356;-66
2021/10/29 06:29:08;;;;;;;58.83;3.33;;;3.20;1.00;;;;;;5072694;28;20228;-67
2021/10/29 06:31:35;;;;;;;58.80;3.95;;;3.30;1.00;;;;;;5072790;28;20392;-71
2021/10/29 06:34:02;;;;;;;59.47;4.60;;;3.30;1.00;;;;;;5072617;28;20236;-67
2021/10/29 06:36:29;;;;;;;58.60;3.55;;;3.40;1.00;;;;;;5071933;28;20233;-67
2021/10/29 06:38:58;;;;;;;60.65;3.40;;;3.40;1.00;;;;;;5073080;28;20252;-66
2021/10/29 06:41:25;;;;;;;58.78;4.03;;;3.50;1.00;;;;;;5071347;28;20564;-69
2021/10/29 06:44:05;;;;;;;58.60;3.03;;;3.60;1.00;;;;;;5072544;28;20208;-66
2021/10/29 06:46:37;;;;;;;58.63;3.13;;;3.70;1.00;;;;;;5071877;28;20223;-67
2021/10/29 06:49:10;;;;;;;58.78;3.20;;;3.80;1.00;;;;;;5071961;28;20750;-66
2021/10/29 06:52:07;;;;;;;58.67;3.00;;;3.90;1.00;;;;;;5071110;28;20266;-66
2021/10/29 07:00:09;;;;;;;58.55;3.10;;;4.30;1.00;;;;;;5049252;28;20251;-67
2021/10/29 07:41:06;;;;;;;58.55;3.40;;;6.70;1.00;;;;;;5091885;28;20723;-67
2021/10/29 07:43:38;;;;;;;58.78;3.05;;;6.80;1.00;;;;;;5091927;28;20643;-69
2021/10/29 07:46:06;;;;;;;58.53;2.95;;;7.00;1.00;;;;;;5090883;28;20315;-69
2021/10/29 07:48:35;;;;;;;58.75;3.20;;;7.20;1.00;;;;;;5091269;28;20643;-68
2021/10/29 07:51:02;;;;;;;58.37;2.83;;;7.30;1.00;;;;;;5091098;28;20228;-67
2021/10/29 07:53:30;;;;;;;59.10;3.20;;;7.40;1.00;;;;;;5091472;28;20447;-70
2021/10/29 07:55:57;;;;;;;58.58;3.03;;;7.60;1.00;;;;;;5089502;28;20209;-68
2021/10/29 07:58:25;;;;;;;58.47;3.05;;;7.70;1.00;;;;;;5091853;28;20205;-68
2021/10/29 08:00:52;;;;;;;58.58;3.00;;;7.90;1.00;;;;;;5091525;28;20282;-70
2021/10/29 08:03:20;;;;;;;58.78;3.10;;;8.00;1.00;;;;;;5091456;28;20202;-71
2021/10/29 08:05:48;;;;;;;58.50;3.33;;;8.10;1.00;;;;;;5090798;28;20232;-67
2021/10/29 08:08:16;;;;;;;59.10;4.13;;;8.30;1.00;;;;;;5090940;28;20967;-67
2021/10/29 08:10:43;;;;;;;58.43;3.20;;;8.40;1.00;;;;;;5091092;28;20472;-67
2021/10/29 08:13:11;;;;;;;58.43;3.00;;;8.60;1.00;;;;;;5091109;28;20532;-68
2021/10/29 08:15:39;;;;;;;58.37;2.97;;;8.80;1.00;;;;;;5091191;28;20443;-67
2021/10/29 08:18:07;;;;;;;58.33;3.10;;;9.00;1.00;;;;;;5091517;28;20541;-69
2021/10/29 08:20:35;;;;;;;58.10;2.60;;;9.20;1.00;;;;;;5091395;28;20469;-68
2021/10/29 08:23:05;;;;;;;59.00;3.30;;;9.40;1.00;;;;;;5091595;28;20525;-70
2021/10/29 08:25:32;;;;;;;58.17;3.13;;;9.60;1.00;;;;;;5087954;28;20480;-68
2021/10/29 08:27:59;;;;;;;58.07;2.80;;;9.80;1.00;;;;;;5070763;28;20445;-69
2021/10/29 08:30:26;;;;;;;58.17;2.87;;;9.80;1.00;;;;;;5070719;28;20480;-69
2021/10/29 08:32:53;;;;;;;61.47;3.07;;;9.90;1.00;;;;;;5070679;28;20456;-69
2021/10/29 08:35:20;;;;;;;58.50;3.00;;;10.10;1.00;;;;;;5071338;28;20454;-71
2021/10/29 08:37:49;;;;;;;58.13;2.90;;;10.20;1.00;;;;;;5071106;28;20545;-69
2021/10/29 08:40:17;;;;;;;58.70;3.87;;;10.30;1.00;;;;;;5071253;28;20467;-69
2021/10/29 08:42:45;;;;;;;59.57;3.57;;;10.50;1.00;;;;;;5071272;28;20544;-70
2021/10/29 08:45:12;;;;;;;58.87;3.30;;;10.60;1.00;;;;;;5070991;28;20454;-69
2021/10/29 08:47:40;;;;;;;58.37;3.63;;;10.60;1.00;;;;;;5070127;28;20569;-69
2021/10/29 08:50:09;;;;;;;58.27;2.70;;;10.70;1.00;;;;;;5070765;28;20469;-67
2021/10/29 08:52:36;;;;;;;58.63;3.20;;;10.80;1.00;;;;;;5070745;28;20539;-67
2021/10/29 08:55:07;;;;;;;58.57;2.97;;;10.90;1.00;;;;;;5071170;28;20501;-69
2021/10/29 08:57:36;;;;;;;58.23;2.90;;;11.00;1.00;;;;;;5074312;28;20449;-68
2021/10/29 09:00:08;;;;;;;58.27;2.90;;;11.10;1.00;;;;;;5090913;28;20482;-67
2021/10/29 09:02:36;;;;;;;58.37;3.20;;;11.30;1.00;;;;;;5091391;28;20915;-68
2021/10/29 09:05:11;;;;;;;58.40;2.97;;;11.50;1.00;;;;;;5094093;28;20817;-69
2021/10/29 09:07:45;;;;;;;58.37;2.97;;;11.70;1.00;;;;;;5094001;28;20489;-69
2021/10/29 09:32:34;;;;;;;57.93;2.80;;;14.90;1.00;;;;;;5094046;28;20954;-69
2021/10/29 09:35:08;;;;;;;58.50;2.97;;;16.20;1.00;;;;;;5094200;28;20454;-68
2021/10/29 09:37:53;;;;;;;58.30;2.90;;;17.20;1.00;;;;;;5093694;28;20916;-69
2021/10/29 09:40:21;;;;;;;58.13;2.80;;;18.00;1.00;;;;;;5094327;28;20458;-69
2021/10/29 09:42:48;;;;;;;58.40;2.80;;;19.00;1.00;;;;;;5094362;28;20924;-69
2021/10/29 09:45:20;;;;;;;58.23;2.63;;;19.60;1.00;;;;;;5093937;28;20545;-69
2021/10/29 09:47:56;;;;;;;58.27;2.70;;;20.30;1.00;;;;;;5093432;28;21006;-69
2021/10/29 09:50:30;;;;;;;58.20;2.50;;;20.90;1.00;;;;;;5093844;28;20473;-70
2021/10/29 09:53:05;;;;;;;59.37;3.07;;;21.50;1.00;;;;;;5093577;28;20523;-68
2021/10/29 09:58:28;;;;;;;58.63;2.67;;;22.90;1.00;;;;;;5011538;28;20434;-66
2021/10/29 10:00:58;;;;;;;59.87;4.80;;;23.30;1.00;;;;;;5071524;28;20906;-67
2021/10/29 10:03:25;;;;;;;58.30;2.60;;;23.60;1.00;;;;;;5093899;28;20525;-67
2021/10/29 10:05:55;;;;;;;58.20;2.10;;;23.60;1.00;;;;;;5093209;28;20475;-67
2021/10/29 10:08:26;;;;;;;57.70;2.30;;;23.70;1.00;;;;;;5092905;28;20486;-66
2021/10/29 10:10:55;;;;;;;57.87;2.40;;;24.10;1.00;;;;;;5092890;28;20503;-67
2021/10/29 10:13:22;;;;;;;58.27;2.83;;;24.50;1.00;;;;;;5093324;28;20868;-67
2021/10/29 10:15:52;;;;;;;58.10;2.60;;;24.60;1.00;;;;;;5093189;28;20444;-67
2021/10/29 10:18:21;;;;;;;58.03;2.47;;;24.70;1.00;;;;;;5093415;28;20503;-67
2021/10/29 10:20:49;;;;;;;57.83;2.30;;;24.90;1.00;;;;;;5093374;28;20519;-67
2021/10/29 10:23:20;;;;;;;57.80;2.60;;;25.30;1.00;;;;;;5093386;28;20871;-67
2021/10/29 10:26:05;;;;;;;57.80;2.33;;;25.50;1.00;;;;;;5093174;28;20954;-67
2021/10/29 10:43:08;;;;;;;57.90;2.20;;;26.90;99.90;;;;;;4991270;28;20443;-67
2021/10/29 10:45:40;;;;;;;58.57;2.87;;;27.00;99.90;;;;;;5055886;28;20451;-67
2021/10/29 10:48:11;;;;;;;57.77;2.60;;;27.30;99.90;;;;;;5072288;28;20505;-67
2021/10/29 10:50:44;;;;;;;58.57;3.43;;;27.70;99.90;;;;;;5071633;28;20474;-69
2021/10/29 10:53:23;;;;;;;57.57;2.50;;;27.70;99.90;;;;;;5072480;28;20457;-66
2021/10/29 10:56:01;;;;;;;57.63;2.47;;;27.50;99.90;;;;;;5072391;28;20500;-67
2021/10/29 10:58:39;;;;;;;57.97;2.97;;;27.20;99.90;;;;;;5072258;28;20891;-68
2021/10/29 11:01:19;;;;;;;58.20;2.53;;;27.30;99.90;;;;;;5072214;28;20479;-67
2021/10/29 11:04:24;;;;;;;57.83;2.30;;;27.90;99.90;;;;;;5070934;28;20858;-67
2021/10/29 11:10:04;;;;;;;57.90;2.53;;;29.00;99.90;;;;;;5069965;28;20557;-67
2021/10/29 11:13:05;;;;;;;57.60;2.43;;;29.80;99.90;;;;;;5058972;28;20833;-68
2021/10/29 11:15:32;;;;;;;58.00;2.37;;;30.70;99.90;;;;;;5071282;28;20439;-67
2021/10/29 11:18:02;;;;;;;57.47;2.40;;;31.30;99.90;;;;;;5071324;28;20488;-68
2021/10/29 11:20:48;;;;;;;57.40;2.40;;;32.30;99.90;;;;;;5071376;28;20471;-67
2021/10/29 11:23:22;;;;;;;58.47;2.80;;;33.50;99.90;;;;;;5071846;28;20447;-67
2021/10/29 11:25:58;;;;;;;58.47;3.27;;;34.30;99.90;;;;;;5070715;28;20500;-68
2021/10/29 11:28:31;;;;;;;57.67;2.50;;;34.10;99.90;;;;;;5070247;28;20454;-70
2021/10/29 11:30:59;;;;;;;58.03;3.00;;;34.10;99.90;;;;;;5071019;28;20460;-68
2021/10/29 11:33:26;;;;;;;58.23;2.40;;;34.00;99.90;;;;;;5071711;28;20443;-67
2021/10/29 11:35:59;;;;;;;57.67;2.53;;;34.10;99.90;;;;;;5068470;28;20451;-67
2021/10/29 11:38:29;;;;;;;57.50;2.20;;;34.10;99.90;;;;;;5070813;28;20928;-67
2021/10/29 11:40:57;;;;;;;58.27;2.50;;;33.90;99.90;;;;;;5071102;28;20836;-68
2021/10/29 11:43:26;;;;;;;58.17;2.83;;;34.00;99.90;;;;;;5070295;28;20807;-67
2021/10/29 11:45:53;;;;;;;57.83;3.57;;;34.20;99.90;;;;;;5069709;28;20466;-67
2021/10/29 11:48:21;;;;;;;57.40;2.40;;;34.10;99.90;;;;;;5071289;28;20446;-69
2021/10/29 11:51:02;;;;;;;57.27;2.20;;;33.70;99.90;;;;;;5070920;28;20463;-68
2021/10/29 11:53:30;;;;;;;57.27;2.10;;;33.20;99.90;;;;;;5071463;28;20445;-67
2021/10/29 11:56:03;;;;;;;57.60;2.93;;;33.20;99.90;;;;;;5071048;28;20444;-67
2021/10/29 11:58:39;;;;;;;57.50;2.60;;;33.60;99.90;;;;;;5071412;28;20493;-67
2021/10/29 12:01:25;;;;;;;57.27;1.90;;;33.60;99.90;;;;;;5071377;28;20483;-67
2021/10/29 12:09:27;;;;;;;58.10;2.40;;;34.00;99.90;;;;;;5070520;28;20445;-68
2021/10/29 12:12:00;;;;;;;57.60;2.30;;;33.50;99.90;;;;;;5070649;28;20959;-68
2021/10/29 12:14:32;;;;;;;58.87;3.07;;;32.90;99.90;;;;;;5070996;28;21060;-67
2021/10/29 12:17:09;;;;;;;57.30;2.30;;;32.70;99.90;;;;;;5070774;28;20696;-67
2021/10/29 12:19:38;;;;;;;58.10;2.73;;;32.90;99.90;;;;;;5071075;28;20474;-67
2021/10/29 12:22:12;;;;;;;57.87;2.50;;;33.50;99.90;;;;;;5071279;28;20442;-69
2021/10/29 12:24:47;;;;;;;57.50;2.40;;;33.70;99.90;;;;;;5071465;28;20457;-68
2021/10/29 12:27:22;;;;;;;57.70;2.50;;;34.10;99.90;;;;;;5071155;28;20469;-67
2021/10/29 12:30:19;;;;;;;57.80;2.27;;;34.30;99.90;;;;;;5070888;28;20496;-67
2021/10/29 12:38:42;;;;;;;57.30;2.10;;;35.60;99.90;;;;;;5072847;28;20611;-68
2021/10/29 13:03:44;;;;;;;57.47;2.40;;;35.70;99.90;;;;;;5074628;28;20422;-68
2021/10/29 13:06:15;;;;;;;57.47;2.50;;;36.20;99.90;;;;;;5074310;28;20451;-67
2021/10/29 13:08:42;;;;;;;57.90;2.67;;;35.90;99.90;;;;;;5074362;28;20442;-68
2021/10/29 13:11:13;;;;;;;57.33;2.10;;;35.90;99.90;;;;;;5082444;28;20496;-68
2021/10/29 13:13:44;;;;;;;57.70;2.63;;;36.40;99.90;;;;;;5094226;28;20450;-68
2021/10/29 13:16:13;;;;;;;57.27;2.20;;;36.90;99.90;;;;;;5094274;28;20446;-68
2021/10/29 13:18:49;;;;;;;56.83;1.70;;;36.70;99.90;;;;;;5094599;28;20486;-67
2021/10/29 13:24:31;;;;;;;56.93;2.23;;;37.80;99.90;;;;;;5094439;28;20431;-70
2021/10/29 13:27:20;;;;;;;57.27;2.33;;;37.80;99.90;;;;;;5094202;28;20877;-68
2021/10/29 13:35:46;;;;;;;57.43;2.27;;;36.00;99.90;;;;;;5093936;28;20467;-67
2021/10/29 13:51:55;;;;;;;59.30;1.97;;;40.10;99.90;;;;;;5093762;28;20839;-69
2021/10/29 13:54:30;;;;;;;57.20;2.17;;;39.90;99.90;;;;;;5093733;28;20446;-67
2021/10/29 13:57:14;;;;;;;57.30;2.00;;;39.80;99.90;;;;;;5093103;28;20836;-67
2021/10/29 13:59:51;;;;;;;57.47;3.07;;;40.30;99.90;;;;;;5093558;28;20484;-67
2021/10/29 14:16:44;;;;;;;57.30;2.13;;;39.70;99.90;;;;;;5092836;28;20940;-67
2021/10/29 14:30:20;;;;;;;61.00;3.23;;;35.70;99.90;;;;;;5091420;28;20515;-67
2021/10/29 14:32:50;;;;;;;57.17;2.00;;;34.50;99.90;;;;;;5092674;28;20444;-67
2021/10/29 14:35:22;;;;;;;57.93;2.70;;;33.60;99.90;;;;;;5092478;28;20458;-69
2021/10/29 14:38:00;;;;;;;58.57;2.93;;;32.70;99.90;;;;;;5092720;28;20474;-67
2021/10/29 14:40:30;;;;;;;59.50;2.60;;;32.20;99.90;;;;;;5092850;28;20508;-70
2021/10/29 14:43:02;;;;;;;57.50;2.40;;;31.60;99.90;;;;;;5093168;28;20447;-70
2021/10/29 14:45:33;;;;;;;57.50;2.10;;;30.90;99.90;;;;;;5092702;28;20815;-69
2021/10/29 14:48:09;;;;;;;57.97;2.40;;;29.70;99.90;;;;;;5093063;28;20439;-67
2021/10/29 15:00:06;;;;;;;58.57;2.80;;;27.00;99.90;;;;;;5092184;28;20533;-67
2021/10/29 15:02:21;;;;;;;57.50;2.00;;;27.20;99.90;;;;;;5078193;28;20430;-70
2021/10/29 15:29:17;;;;;;;58.30;2.20;;;23.80;99.90;;;;;;5071593;28;20440;-67
2021/10/29 15:32:02;;;;;;;57.77;2.30;;;23.40;99.90;;;;;;5071576;28;20789;-70
2021/10/29 15:45:32;;;;;;;57.83;2.80;;;19.80;1.00;;;;;;5091379;28;20573;-67
2021/10/29 15:48:07;;;;;;;58.37;2.60;;;19.10;1.00;;;;;;5092161;28;20437;-68
2021/10/29 15:50:35;;;;;;;58.27;2.80;;;18.50;1.00;;;;;;5091436;28;20989;-67
2021/10/29 15:53:03;;;;;;;58.70;3.67;;;18.00;1.00;;;;;;5091754;28;20452;-67
2021/10/29 15:55:39;;;;;;;58.97;3.10;;;17.40;1.00;;;;;;5090991;28;20487;-68
2021/10/29 15:58:15;;;;;;;58.47;2.90;;;16.90;1.00;;;;;;5091375;28;20484;-67
2021/10/29 16:03:30;;;;;;;57.77;2.63;;;16.00;1.00;;;;;;5090987;28;20443;-68
2021/10/29 16:17:08;;;;;;;58.23;3.10;;;14.10;1.00;;;;;;5070552;28;20934;-69
2021/10/29 16:19:35;;;;;;;58.27;2.70;;;13.80;1.00;;;;;;5070658;28;20561;-67
2021/10/29 16:22:06;;;;;;;58.90;2.80;;;13.50;1.00;;;;;;5071319;28;20451;-67
2021/10/29 16:24:33;;;;;;;58.90;3.67;;;13.20;1.00;;;;;;5071175;28;20939;-67
2021/10/29 16:27:01;;;;;;;58.30;3.00;;;13.00;1.00;;;;;;5070961;28;20451;-68
2021/10/29 16:29:28;;;;;;;58.80;3.00;;;12.80;1.00;;;;;;5071378;28;20471;-68
2021/10/29 16:31:56;;;;;;;58.47;2.80;;;12.50;1.00;;;;;;5071044;28;20482;-67
2021/10/29 16:34:24;;;;;;;58.60;2.93;;;12.30;1.00;;;;;;5070352;28;20867;-67
2021/10/29 16:36:51;;;;;;;58.70;3.23;;;12.10;1.00;;;;;;5070585;28;20442;-67
2021/10/29 16:39:18;;;;;;;58.67;2.90;;;11.90;1.00;;;;;;5071514;28;20513;-67
2021/10/29 16:41:45;;;;;;;59.00;3.00;;;11.80;1.00;;;;;;5077492;28;20454;-67
2021/10/29 16:44:13;;;;;;;58.47;2.87;;;11.60;1.00;;;;;;5090900;28;20477;-67
2021/10/29 16:46:40;;;;;;;59.10;3.10;;;11.50;1.00;;;;;;5090706;28;21035;-67
2021/10/29 16:49:06;;;;;;;59.07;3.40;;;11.40;1.00;;;;;;5091199;28;20537;-68
2021/10/29 16:51:33;;;;;;;58.80;3.00;;;11.30;1.00;;;;;;5091244;28;20977;-67